sensor_id;sensor_type;location;lat;lon;timestamp;P1;durP1;ratioP1;P2;durP2;ratioP2
54705;SDS011;40603;48.774;8.916;2023-11-21T00:01:37;6.47;;;1.33;;
54705;SDS011;40603;48.774;8.916;2023-11-21T00:04:02;2.75;;;1.10;;
54705;SDS011;40603;48.774;8.916;2023-11-21T00:06:28;8.57;;;1.70;;
54705;SDS011;40603;48.774;8.916;2023-11-21T00:08:55;4.53;;;1.20;;
54705;SDS011;40603;48.774;8.916;2023-11-21T00:11:20;2.33;;;1.13;;
54705;SDS011;40603;48.774;8.916;2023-11-21T00:13:46;3.72;;;1.10;;
54705;SDS011;40603;48.774;8.916;2023-11-21T00:16:11;4.93;;;1.30;;
54705;SDS011;40603;48.774;8.916;2023-11-21T00:18:36;2.40;;;1.30;;
54705;SDS011;40603;48.774;8.916;2023-11-21T00:21:02;7.30;;;1.20;;
54705;SDS011;40603;48.774;8.916;2023-11-21T00:23:28;2.85;;;1.23;;
54705;SDS011;40603;48.774;8.916;2023-11-21T00:25:53;1.38;;;0.70;;
54705;SDS011;40603;48.774;8.916;2023-11-21T00:28:19;1.42;;;1.02;;
54705;SDS011;40603;48.774;8.916;2023-11-21T00:30:44;4.53;;;0.93;;
54705;SDS011;40603;48.774;8.916;2023-11-21T00:33:09;2.13;;;0.90;;
54705;SDS011;40603;48.774;8.916;2023-11-21T00:35:35;2.42;;;1.13;;
54705;SDS011;40603;48.774;8.916;2023-11-21T00:38:00;5.88;;;1.05;;
54705;SDS011;40603;48.774;8.916;2023-11-21T00:40:25;3.13;;;1.20;;
54705;SDS011;40603;48.774;8.916;2023-11-21T00:42:51;6.00;;;1.20;;
54705;SDS011;40603;48.774;8.916;2023-11-21T00:45:16;3.95;;;1.20;;
54705;SDS011;40603;48.774;8.916;2023-11-21T00:47:41;5.55;;;1.48;;
54705;SDS011;40603;48.774;8.916;2023-11-21T00:50:07;3.38;;;1.52;;
54705;SDS011;40603;48.774;8.916;2023-11-21T00:52:34;4.15;;;1.48;;
54705;SDS011;40603;48.774;8.916;2023-11-21T00:54:59;9.02;;;1.25;;
54705;SDS011;40603;48.774;8.916;2023-11-21T00:57:25;4.10;;;1.50;;
54705;SDS011;40603;48.774;8.916;2023-11-21T00:59:51;3.20;;;1.25;;
54705;SDS011;40603;48.774;8.916;2023-11-21T01:02:16;3.88;;;1.20;;
54705;SDS011;40603;48.774;8.916;2023-11-21T01:04:41;3.10;;;1.10;;
54705;SDS011;40603;48.774;8.916;2023-11-21T01:07:07;4.15;;;1.23;;
54705;SDS011;40603;48.774;8.916;2023-11-21T01:09:32;6.43;;;2.30;;
54705;SDS011;40603;48.774;8.916;2023-11-21T01:11:57;8.10;;;1.65;;
54705;SDS011;40603;48.774;8.916;2023-11-21T01:14:24;6.25;;;1.40;;
54705;SDS011;40603;48.774;8.916;2023-11-21T01:16:52;3.42;;;1.20;;
54705;SDS011;40603;48.774;8.916;2023-11-21T01:19:17;3.83;;;1.10;;
54705;SDS011;40603;48.774;8.916;2023-11-21T01:21:43;5.85;;;1.50;;
54705;SDS011;40603;48.774;8.916;2023-11-21T01:24:08;3.53;;;1.20;;
54705;SDS011;40603;48.774;8.916;2023-11-21T01:26:33;5.35;;;1.15;;
54705;SDS011;40603;48.774;8.916;2023-11-21T01:28:59;5.10;;;1.48;;
54705;SDS011;40603;48.774;8.916;2023-11-21T01:31:24;3.95;;;1.40;;
54705;SDS011;40603;48.774;8.916;2023-11-21T01:33:54;6.03;;;1.60;;
54705;SDS011;40603;48.774;8.916;2023-11-21T01:36:20;5.90;;;1.15;;
54705;SDS011;40603;48.774;8.916;2023-11-21T01:38:46;4.40;;;1.15;;
54705;SDS011;40603;48.774;8.916;2023-11-21T01:41:12;3.78;;;1.23;;
54705;SDS011;40603;48.774;8.916;2023-11-21T01:43:38;6.80;;;1.60;;
54705;SDS011;40603;48.774;8.916;2023-11-21T01:46:03;3.75;;;1.45;;
54705;SDS011;40603;48.774;8.916;2023-11-21T01:48:31;4.72;;;1.42;;
54705;SDS011;40603;48.774;8.916;2023-11-21T01:50:56;2.80;;;1.27;;
54705;SDS011;40603;48.774;8.916;2023-11-21T01:53:23;2.67;;;1.20;;
54705;SDS011;40603;48.774;8.916;2023-11-21T01:55:50;4.90;;;1.50;;
54705;SDS011;40603;48.774;8.916;2023-11-21T01:58:16;3.55;;;1.60;;
54705;SDS011;40603;48.774;8.916;2023-11-21T02:00:41;2.53;;;1.30;;
54705;SDS011;40603;48.774;8.916;2023-11-21T02:03:07;2.45;;;0.98;;
54705;SDS011;40603;48.774;8.916;2023-11-21T02:05:32;3.40;;;1.08;;
54705;SDS011;40603;48.774;8.916;2023-11-21T02:07:57;4.80;;;1.20;;
54705;SDS011;40603;48.774;8.916;2023-11-21T02:10:23;4.18;;;1.50;;
54705;SDS011;40603;48.774;8.916;2023-11-21T02:12:49;3.92;;;1.23;;
54705;SDS011;40603;48.774;8.916;2023-11-21T02:15:17;5.53;;;1.23;;
54705;SDS011;40603;48.774;8.916;2023-11-21T02:17:49;2.55;;;1.17;;
54705;SDS011;40603;48.774;8.916;2023-11-21T02:20:18;2.00;;;1.00;;
54705;SDS011;40603;48.774;8.916;2023-11-21T02:22:51;2.72;;;1.38;;
54705;SDS011;40603;48.774;8.916;2023-11-21T02:25:30;5.35;;;1.45;;
54705;SDS011;40603;48.774;8.916;2023-11-21T02:27:58;1.63;;;1.25;;
54705;SDS011;40603;48.774;8.916;2023-11-21T02:30:25;3.78;;;1.00;;
54705;SDS011;40603;48.774;8.916;2023-11-21T02:32:51;3.28;;;1.17;;
54705;SDS011;40603;48.774;8.916;2023-11-21T02:35:18;3.90;;;1.35;;
54705;SDS011;40603;48.774;8.916;2023-11-21T02:37:45;4.18;;;1.33;;
54705;SDS011;40603;48.774;8.916;2023-11-21T02:40:10;2.35;;;1.30;;
54705;SDS011;40603;48.774;8.916;2023-11-21T02:42:42;10.00;;;2.00;;
54705;SDS011;40603;48.774;8.916;2023-11-21T02:45:08;2.30;;;1.30;;
54705;SDS011;40603;48.774;8.916;2023-11-21T02:47:34;3.85;;;1.70;;
54705;SDS011;40603;48.774;8.916;2023-11-21T02:49:59;2.85;;;1.42;;
54705;SDS011;40603;48.774;8.916;2023-11-21T02:52:25;1.77;;;1.33;;
54705;SDS011;40603;48.774;8.916;2023-11-21T02:54:50;5.57;;;1.65;;
54705;SDS011;40603;48.774;8.916;2023-11-21T02:57:16;3.47;;;1.35;;
54705;SDS011;40603;48.774;8.916;2023-11-21T02:59:41;3.65;;;1.52;;
54705;SDS011;40603;48.774;8.916;2023-11-21T03:02:07;2.55;;;1.15;;
54705;SDS011;40603;48.774;8.916;2023-11-21T03:04:33;4.28;;;1.33;;
54705;SDS011;40603;48.774;8.916;2023-11-21T03:07:00;4.18;;;1.20;;
54705;SDS011;40603;48.774;8.916;2023-11-21T03:09:25;3.85;;;1.20;;
54705;SDS011;40603;48.774;8.916;2023-11-21T03:11:51;2.58;;;1.00;;
54705;SDS011;40603;48.774;8.916;2023-11-21T03:14:17;3.28;;;1.10;;
54705;SDS011;40603;48.774;8.916;2023-11-21T03:16:42;1.60;;;1.00;;
54705;SDS011;40603;48.774;8.916;2023-11-21T03:19:10;1.05;;;0.90;;
54705;SDS011;40603;48.774;8.916;2023-11-21T03:21:36;4.05;;;1.15;;
54705;SDS011;40603;48.774;8.916;2023-11-21T03:24:01;2.75;;;1.10;;
54705;SDS011;40603;48.774;8.916;2023-11-21T03:26:26;4.28;;;1.10;;
54705;SDS011;40603;48.774;8.916;2023-11-21T03:28:52;4.90;;;1.40;;
54705;SDS011;40603;48.774;8.916;2023-11-21T03:31:18;5.07;;;1.00;;
54705;SDS011;40603;48.774;8.916;2023-11-21T03:33:44;4.82;;;1.40;;
54705;SDS011;40603;48.774;8.916;2023-11-21T03:36:10;4.30;;;1.20;;
54705;SDS011;40603;48.774;8.916;2023-11-21T03:38:36;2.47;;;1.27;;
54705;SDS011;40603;48.774;8.916;2023-11-21T03:41:02;3.08;;;1.23;;
54705;SDS011;40603;48.774;8.916;2023-11-21T03:43:27;3.92;;;0.90;;
54705;SDS011;40603;48.774;8.916;2023-11-21T03:45:52;2.78;;;0.98;;
54705;SDS011;40603;48.774;8.916;2023-11-21T03:48:18;6.45;;;1.10;;
54705;SDS011;40603;48.774;8.916;2023-11-21T03:50:43;3.30;;;0.98;;
54705;SDS011;40603;48.774;8.916;2023-11-21T03:53:08;1.98;;;0.90;;
54705;SDS011;40603;48.774;8.916;2023-11-21T03:55:33;3.33;;;1.17;;
54705;SDS011;40603;48.774;8.916;2023-11-21T03:57:59;3.72;;;1.10;;
54705;SDS011;40603;48.774;8.916;2023-11-21T04:00:24;2.03;;;1.13;;
54705;SDS011;40603;48.774;8.916;2023-11-21T04:02:51;2.30;;;1.08;;
54705;SDS011;40603;48.774;8.916;2023-11-21T04:05:17;5.90;;;1.00;;
54705;SDS011;40603;48.774;8.916;2023-11-21T04:07:42;1.95;;;0.93;;
54705;SDS011;40603;48.774;8.916;2023-11-21T04:10:08;3.40;;;1.10;;
54705;SDS011;40603;48.774;8.916;2023-11-21T04:12:37;3.92;;;1.10;;
54705;SDS011;40603;48.774;8.916;2023-11-21T04:15:03;2.67;;;1.27;;
54705;SDS011;40603;48.774;8.916;2023-11-21T04:17:28;6.63;;;1.10;;
54705;SDS011;40603;48.774;8.916;2023-11-21T04:19:54;1.83;;;1.20;;
54705;SDS011;40603;48.774;8.916;2023-11-21T04:22:19;2.28;;;1.10;;
54705;SDS011;40603;48.774;8.916;2023-11-21T04:24:44;2.85;;;1.13;;
54705;SDS011;40603;48.774;8.916;2023-11-21T04:27:09;6.65;;;1.60;;
54705;SDS011;40603;48.774;8.916;2023-11-21T04:29:35;4.60;;;0.90;;
54705;SDS011;40603;48.774;8.916;2023-11-21T04:32:01;1.67;;;0.80;;
54705;SDS011;40603;48.774;8.916;2023-11-21T04:34:27;3.15;;;1.00;;
54705;SDS011;40603;48.774;8.916;2023-11-21T04:36:54;4.78;;;0.90;;
54705;SDS011;40603;48.774;8.916;2023-11-21T04:39:20;1.42;;;0.70;;
54705;SDS011;40603;48.774;8.916;2023-11-21T04:41:45;4.50;;;1.00;;
54705;SDS011;40603;48.774;8.916;2023-11-21T04:44:10;3.95;;;0.82;;
54705;SDS011;40603;48.774;8.916;2023-11-21T04:46:36;2.70;;;0.80;;
54705;SDS011;40603;48.774;8.916;2023-11-21T04:49:01;1.40;;;0.70;;
54705;SDS011;40603;48.774;8.916;2023-11-21T04:51:26;1.98;;;0.82;;
54705;SDS011;40603;48.774;8.916;2023-11-21T04:53:52;1.92;;;0.88;;
54705;SDS011;40603;48.774;8.916;2023-11-21T04:56:17;2.30;;;1.15;;
54705;SDS011;40603;48.774;8.916;2023-11-21T04:58:43;1.08;;;0.98;;
54705;SDS011;40603;48.774;8.916;2023-11-21T05:01:08;0.82;;;0.82;;
54705;SDS011;40603;48.774;8.916;2023-11-21T05:03:33;2.33;;;0.90;;
54705;SDS011;40603;48.774;8.916;2023-11-21T05:05:59;2.08;;;0.70;;
54705;SDS011;40603;48.774;8.916;2023-11-21T05:08:24;0.90;;;0.68;;
54705;SDS011;40603;48.774;8.916;2023-11-21T05:10:51;2.58;;;0.90;;
54705;SDS011;40603;48.774;8.916;2023-11-21T05:13:17;2.97;;;0.90;;
54705;SDS011;40603;48.774;8.916;2023-11-21T05:15:43;1.00;;;0.70;;
54705;SDS011;40603;48.774;8.916;2023-11-21T05:18:09;1.55;;;0.60;;
54705;SDS011;40603;48.774;8.916;2023-11-21T05:20:35;2.53;;;0.73;;
54705;SDS011;40603;48.774;8.916;2023-11-21T05:23:00;1.27;;;0.82;;
54705;SDS011;40603;48.774;8.916;2023-11-21T05:25:25;1.52;;;0.70;;
54705;SDS011;40603;48.774;8.916;2023-11-21T05:27:51;1.58;;;0.80;;
54705;SDS011;40603;48.774;8.916;2023-11-21T05:30:16;1.17;;;0.60;;
54705;SDS011;40603;48.774;8.916;2023-11-21T05:32:41;0.82;;;0.60;;
54705;SDS011;40603;48.774;8.916;2023-11-21T05:35:11;0.85;;;0.80;;
54705;SDS011;40603;48.774;8.916;2023-11-21T05:37:42;0.95;;;0.68;;
54705;SDS011;40603;48.774;8.916;2023-11-21T05:40:08;0.88;;;0.60;;
54705;SDS011;40603;48.774;8.916;2023-11-21T05:42:34;4.18;;;0.90;;
54705;SDS011;40603;48.774;8.916;2023-11-21T05:45:00;1.92;;;0.75;;
54705;SDS011;40603;48.774;8.916;2023-11-21T05:47:35;1.17;;;0.70;;
54705;SDS011;40603;48.774;8.916;2023-11-21T05:50:01;1.05;;;0.95;;
54705;SDS011;40603;48.774;8.916;2023-11-21T05:52:26;1.92;;;0.80;;
54705;SDS011;40603;48.774;8.916;2023-11-21T05:54:52;2.75;;;1.02;;
54705;SDS011;40603;48.774;8.916;2023-11-21T05:57:17;2.17;;;0.95;;
54705;SDS011;40603;48.774;8.916;2023-11-21T05:59:42;2.55;;;1.05;;
54705;SDS011;40603;48.774;8.916;2023-11-21T06:02:08;3.33;;;1.02;;
54705;SDS011;40603;48.774;8.916;2023-11-21T06:04:34;0.85;;;0.85;;
54705;SDS011;40603;48.774;8.916;2023-11-21T06:06:59;2.70;;;0.95;;
54705;SDS011;40603;48.774;8.916;2023-11-21T06:09:25;2.00;;;1.52;;
54705;SDS011;40603;48.774;8.916;2023-11-21T06:11:51;1.27;;;0.90;;
54705;SDS011;40603;48.774;8.916;2023-11-21T06:14:16;3.95;;;1.02;;
54705;SDS011;40603;48.774;8.916;2023-11-21T06:16:42;0.80;;;0.75;;
54705;SDS011;40603;48.774;8.916;2023-11-21T06:19:10;2.45;;;0.95;;
54705;SDS011;40603;48.774;8.916;2023-11-21T06:21:35;1.98;;;1.10;;
54705;SDS011;40603;48.774;8.916;2023-11-21T06:24:00;2.50;;;1.10;;
54705;SDS011;40603;48.774;8.916;2023-11-21T06:26:26;6.07;;;1.35;;
54705;SDS011;40603;48.774;8.916;2023-11-21T06:28:52;1.77;;;1.27;;
54705;SDS011;40603;48.774;8.916;2023-11-21T06:31:17;2.92;;;0.98;;
54705;SDS011;40603;48.774;8.916;2023-11-21T06:33:43;1.30;;;1.08;;
54705;SDS011;40603;48.774;8.916;2023-11-21T06:36:08;1.63;;;1.00;;
54705;SDS011;40603;48.774;8.916;2023-11-21T06:38:36;1.50;;;1.10;;
54705;SDS011;40603;48.774;8.916;2023-11-21T06:41:01;1.38;;;0.93;;
54705;SDS011;40603;48.774;8.916;2023-11-21T06:43:27;4.78;;;1.13;;
54705;SDS011;40603;48.774;8.916;2023-11-21T06:45:52;2.95;;;1.08;;
54705;SDS011;40603;48.774;8.916;2023-11-21T06:48:18;2.60;;;1.00;;
54705;SDS011;40603;48.774;8.916;2023-11-21T06:50:43;2.05;;;1.15;;
54705;SDS011;40603;48.774;8.916;2023-11-21T06:53:09;5.90;;;1.38;;
54705;SDS011;40603;48.774;8.916;2023-11-21T06:55:35;1.25;;;0.80;;
54705;SDS011;40603;48.774;8.916;2023-11-21T06:58:00;1.45;;;1.00;;
54705;SDS011;40603;48.774;8.916;2023-11-21T07:00:26;2.55;;;1.42;;
54705;SDS011;40603;48.774;8.916;2023-11-21T07:02:53;1.77;;;1.20;;
54705;SDS011;40603;48.774;8.916;2023-11-21T07:05:19;0.98;;;0.82;;
54705;SDS011;40603;48.774;8.916;2023-11-21T07:07:46;2.15;;;1.25;;
54705;SDS011;40603;48.774;8.916;2023-11-21T07:10:13;4.53;;;1.25;;
54705;SDS011;40603;48.774;8.916;2023-11-21T07:12:38;3.03;;;1.10;;
54705;SDS011;40603;48.774;8.916;2023-11-21T07:15:05;2.65;;;1.15;;
54705;SDS011;40603;48.774;8.916;2023-11-21T07:17:34;5.07;;;1.30;;
54705;SDS011;40603;48.774;8.916;2023-11-21T07:20:00;3.80;;;1.20;;
54705;SDS011;40603;48.774;8.916;2023-11-21T07:22:25;1.83;;;1.33;;
54705;SDS011;40603;48.774;8.916;2023-11-21T07:24:51;2.05;;;1.27;;
54705;SDS011;40603;48.774;8.916;2023-11-21T07:27:16;5.10;;;2.30;;
54705;SDS011;40603;48.774;8.916;2023-11-21T07:29:42;5.22;;;2.53;;
54705;SDS011;40603;48.774;8.916;2023-11-21T07:32:07;3.85;;;2.08;;
54705;SDS011;40603;48.774;8.916;2023-11-21T07:34:34;4.13;;;2.10;;
54705;SDS011;40603;48.774;8.916;2023-11-21T07:36:59;2.42;;;1.65;;
54705;SDS011;40603;48.774;8.916;2023-11-21T07:39:25;3.67;;;1.77;;
54705;SDS011;40603;48.774;8.916;2023-11-21T07:41:50;4.18;;;1.88;;
54705;SDS011;40603;48.774;8.916;2023-11-21T07:44:18;4.93;;;2.03;;
54705;SDS011;40603;48.774;8.916;2023-11-21T07:46:44;6.68;;;1.73;;
54705;SDS011;40603;48.774;8.916;2023-11-21T07:49:10;2.60;;;1.70;;
54705;SDS011;40603;48.774;8.916;2023-11-21T07:51:35;4.60;;;2.08;;
54705;SDS011;40603;48.774;8.916;2023-11-21T07:54:01;2.38;;;1.70;;
54705;SDS011;40603;48.774;8.916;2023-11-21T07:56:26;2.97;;;1.63;;
54705;SDS011;40603;48.774;8.916;2023-11-21T07:58:52;1.58;;;1.48;;
54705;SDS011;40603;48.774;8.916;2023-11-21T08:01:17;2.50;;;1.58;;
54705;SDS011;40603;48.774;8.916;2023-11-21T08:03:42;2.90;;;1.75;;
54705;SDS011;40603;48.774;8.916;2023-11-21T08:06:09;1.75;;;1.33;;
54705;SDS011;40603;48.774;8.916;2023-11-21T08:08:34;2.28;;;1.30;;
54705;SDS011;40603;48.774;8.916;2023-11-21T08:10:59;4.55;;;1.85;;
54705;SDS011;40603;48.774;8.916;2023-11-21T08:13:27;3.05;;;1.52;;
54705;SDS011;40603;48.774;8.916;2023-11-21T08:15:57;2.83;;;1.85;;
54705;SDS011;40603;48.774;8.916;2023-11-21T08:18:26;2.72;;;1.55;;
54705;SDS011;40603;48.774;8.916;2023-11-21T08:20:52;1.75;;;1.50;;
54705;SDS011;40603;48.774;8.916;2023-11-21T08:23:17;4.15;;;2.20;;
54705;SDS011;40603;48.774;8.916;2023-11-21T08:25:45;4.55;;;1.90;;
54705;SDS011;40603;48.774;8.916;2023-11-21T08:28:11;3.38;;;2.08;;
54705;SDS011;40603;48.774;8.916;2023-11-21T08:30:37;2.65;;;2.30;;
54705;SDS011;40603;48.774;8.916;2023-11-21T08:33:02;3.90;;;2.00;;
54705;SDS011;40603;48.774;8.916;2023-11-21T08:35:28;1.92;;;1.63;;
54705;SDS011;40603;48.774;8.916;2023-11-21T08:37:54;2.13;;;1.65;;
54705;SDS011;40603;48.774;8.916;2023-11-21T08:40:20;3.55;;;1.67;;
54705;SDS011;40603;48.774;8.916;2023-11-21T08:42:46;2.17;;;1.77;;
54705;SDS011;40603;48.774;8.916;2023-11-21T08:45:11;2.92;;;1.90;;
54705;SDS011;40603;48.774;8.916;2023-11-21T08:47:37;2.70;;;2.03;;
54705;SDS011;40603;48.774;8.916;2023-11-21T08:50:03;3.55;;;1.58;;
54705;SDS011;40603;48.774;8.916;2023-11-21T08:52:32;2.60;;;2.00;;
54705;SDS011;40603;48.774;8.916;2023-11-21T08:54:58;4.05;;;2.15;;
54705;SDS011;40603;48.774;8.916;2023-11-21T08:57:27;2.83;;;1.80;;
54705;SDS011;40603;48.774;8.916;2023-11-21T08:59:52;4.18;;;1.90;;
54705;SDS011;40603;48.774;8.916;2023-11-21T09:02:20;2.45;;;1.90;;
54705;SDS011;40603;48.774;8.916;2023-11-21T09:04:47;2.88;;;1.98;;
54705;SDS011;40603;48.774;8.916;2023-11-21T09:07:13;2.42;;;1.75;;
54705;SDS011;40603;48.774;8.916;2023-11-21T09:09:38;8.57;;;1.85;;
54705;SDS011;40603;48.774;8.916;2023-11-21T09:12:03;1.92;;;1.70;;
54705;SDS011;40603;48.774;8.916;2023-11-21T09:14:29;3.22;;;1.95;;
54705;SDS011;40603;48.774;8.916;2023-11-21T09:16:54;2.47;;;1.80;;
54705;SDS011;40603;48.774;8.916;2023-11-21T09:19:21;3.17;;;1.80;;
54705;SDS011;40603;48.774;8.916;2023-11-21T09:21:46;4.05;;;1.80;;
54705;SDS011;40603;48.774;8.916;2023-11-21T09:24:11;3.83;;;1.70;;
54705;SDS011;40603;48.774;8.916;2023-11-21T09:26:37;3.20;;;1.70;;
54705;SDS011;40603;48.774;8.916;2023-11-21T09:29:02;2.90;;;1.90;;
54705;SDS011;40603;48.774;8.916;2023-11-21T09:31:27;3.03;;;2.00;;
54705;SDS011;40603;48.774;8.916;2023-11-21T09:33:53;3.35;;;1.92;;
54705;SDS011;40603;48.774;8.916;2023-11-21T09:36:18;4.28;;;2.00;;
54705;SDS011;40603;48.774;8.916;2023-11-21T09:38:44;1.80;;;1.70;;
54705;SDS011;40603;48.774;8.916;2023-11-21T09:41:11;4.47;;;2.03;;
54705;SDS011;40603;48.774;8.916;2023-11-21T09:43:42;2.88;;;1.75;;
54705;SDS011;40603;48.774;8.916;2023-11-21T09:46:09;2.63;;;2.20;;
54705;SDS011;40603;48.774;8.916;2023-11-21T09:48:37;4.40;;;1.88;;
54705;SDS011;40603;48.774;8.916;2023-11-21T09:51:04;2.35;;;1.80;;
54705;SDS011;40603;48.774;8.916;2023-11-21T09:53:29;2.33;;;1.70;;
54705;SDS011;40603;48.774;8.916;2023-11-21T09:55:58;3.22;;;1.95;;
54705;SDS011;40603;48.774;8.916;2023-11-21T09:58:25;4.97;;;3.08;;
54705;SDS011;40603;48.774;8.916;2023-11-21T10:00:55;3.83;;;1.73;;
54705;SDS011;40603;48.774;8.916;2023-11-21T10:03:21;2.88;;;1.75;;
54705;SDS011;40603;48.774;8.916;2023-11-21T10:05:46;2.28;;;1.80;;
54705;SDS011;40603;48.774;8.916;2023-11-21T10:08:15;3.50;;;2.25;;
54705;SDS011;40603;48.774;8.916;2023-11-21T10:10:44;3.28;;;2.42;;
54705;SDS011;40603;48.774;8.916;2023-11-21T10:13:11;3.07;;;1.97;;
54705;SDS011;40603;48.774;8.916;2023-11-21T10:15:37;2.65;;;1.67;;
54705;SDS011;40603;48.774;8.916;2023-11-21T10:18:03;2.17;;;1.90;;
54705;SDS011;40603;48.774;8.916;2023-11-21T10:20:31;2.75;;;1.80;;
54705;SDS011;40603;48.774;8.916;2023-11-21T10:22:58;2.83;;;1.65;;
54705;SDS011;40603;48.774;8.916;2023-11-21T10:25:23;2.95;;;2.00;;
54705;SDS011;40603;48.774;8.916;2023-11-21T10:27:49;2.08;;;1.88;;
54705;SDS011;40603;48.774;8.916;2023-11-21T10:30:17;2.65;;;2.13;;
54705;SDS011;40603;48.774;8.916;2023-11-21T10:32:43;1.50;;;1.15;;
54705;SDS011;40603;48.774;8.916;2023-11-21T10:35:09;1.50;;;1.13;;
54705;SDS011;40603;48.774;8.916;2023-11-21T10:37:40;3.85;;;1.63;;
54705;SDS011;40603;48.774;8.916;2023-11-21T10:40:06;1.52;;;1.40;;
54705;SDS011;40603;48.774;8.916;2023-11-21T10:42:32;1.75;;;1.30;;
54705;SDS011;40603;48.774;8.916;2023-11-21T10:44:58;2.17;;;1.10;;
54705;SDS011;40603;48.774;8.916;2023-11-21T10:47:23;1.38;;;0.93;;
54705;SDS011;40603;48.774;8.916;2023-11-21T10:49:49;1.95;;;0.60;;
54705;SDS011;40603;48.774;8.916;2023-11-21T10:52:14;1.15;;;0.75;;
54705;SDS011;40603;48.774;8.916;2023-11-21T10:54:43;0.75;;;0.75;;
54705;SDS011;40603;48.774;8.916;2023-11-21T10:57:08;1.05;;;0.85;;
54705;SDS011;40603;48.774;8.916;2023-11-21T10:59:35;0.60;;;0.60;;
54705;SDS011;40603;48.774;8.916;2023-11-21T11:02:01;1.25;;;1.10;;
54705;SDS011;40603;48.774;8.916;2023-11-21T11:04:28;0.88;;;0.88;;
54705;SDS011;40603;48.774;8.916;2023-11-21T11:06:57;1.20;;;1.10;;
54705;SDS011;40603;48.774;8.916;2023-11-21T11:09:23;1.13;;;0.90;;
54705;SDS011;40603;48.774;8.916;2023-11-21T11:11:48;1.23;;;1.13;;
54705;SDS011;40603;48.774;8.916;2023-11-21T11:14:14;1.40;;;1.23;;
54705;SDS011;40603;48.774;8.916;2023-11-21T11:16:40;0.80;;;0.80;;
54705;SDS011;40603;48.774;8.916;2023-11-21T11:19:06;1.00;;;0.95;;
54705;SDS011;40603;48.774;8.916;2023-11-21T11:30:20;1.73;;;1.55;;
54705;SDS011;40603;48.774;8.916;2023-11-21T11:35:59;1.60;;;1.50;;
54705;SDS011;40603;48.774;8.916;2023-11-21T11:38:31;2.63;;;1.67;;
54705;SDS011;40603;48.774;8.916;2023-11-21T11:40:57;1.40;;;1.30;;
54705;SDS011;40603;48.774;8.916;2023-11-21T11:43:26;1.63;;;1.50;;
54705;SDS011;40603;48.774;8.916;2023-11-21T11:45:52;2.17;;;1.63;;
54705;SDS011;40603;48.774;8.916;2023-11-21T11:48:19;2.13;;;1.60;;
54705;SDS011;40603;48.774;8.916;2023-11-21T11:53:47;3.85;;;1.98;;
54705;SDS011;40603;48.774;8.916;2023-11-21T11:56:23;3.30;;;2.22;;
54705;SDS011;40603;48.774;8.916;2023-11-21T11:58:52;3.45;;;2.95;;
54705;SDS011;40603;48.774;8.916;2023-11-21T12:01:19;3.72;;;3.42;;
54705;SDS011;40603;48.774;8.916;2023-11-21T12:04:23;4.45;;;3.05;;
54705;SDS011;40603;48.774;8.916;2023-11-21T12:06:47;3.38;;;3.00;;
54705;SDS011;40603;48.774;8.916;2023-11-21T12:09:19;3.78;;;3.10;;
54705;SDS011;40603;48.774;8.916;2023-11-21T12:11:46;3.78;;;3.20;;
54705;SDS011;40603;48.774;8.916;2023-11-21T12:14:13;3.95;;;3.55;;
54705;SDS011;40603;48.774;8.916;2023-11-21T12:16:38;4.82;;;3.70;;
54705;SDS011;40603;48.774;8.916;2023-11-21T12:19:03;5.22;;;3.60;;
54705;SDS011;40603;48.774;8.916;2023-11-21T12:21:29;5.38;;;3.75;;
54705;SDS011;40603;48.774;8.916;2023-11-21T12:23:55;4.82;;;3.88;;
54705;SDS011;40603;48.774;8.916;2023-11-21T12:26:22;4.20;;;3.72;;
54705;SDS011;40603;48.774;8.916;2023-11-21T12:28:52;5.32;;;3.50;;
54705;SDS011;40603;48.774;8.916;2023-11-21T12:31:22;7.43;;;3.55;;
54705;SDS011;40603;48.774;8.916;2023-11-21T12:33:47;5.30;;;3.60;;
54705;SDS011;40603;48.774;8.916;2023-11-21T12:36:13;5.70;;;3.75;;
54705;SDS011;40603;48.774;8.916;2023-11-21T12:38:39;4.63;;;4.00;;
54705;SDS011;40603;48.774;8.916;2023-11-21T12:41:04;6.45;;;4.30;;
54705;SDS011;40603;48.774;8.916;2023-11-21T12:43:31;6.18;;;4.30;;
54705;SDS011;40603;48.774;8.916;2023-11-21T12:46:07;6.18;;;4.10;;
54705;SDS011;40603;48.774;8.916;2023-11-21T12:48:39;5.60;;;4.07;;
54705;SDS011;40603;48.774;8.916;2023-11-21T12:51:09;7.40;;;3.70;;
54705;SDS011;40603;48.774;8.916;2023-11-21T12:53:34;5.38;;;3.83;;
54705;SDS011;40603;48.774;8.916;2023-11-21T12:56:06;6.13;;;3.63;;
54705;SDS011;40603;48.774;8.916;2023-11-21T12:58:34;3.97;;;3.20;;
54705;SDS011;40603;48.774;8.916;2023-11-21T13:01:00;5.70;;;3.58;;
54705;SDS011;40603;48.774;8.916;2023-11-21T13:03:28;6.25;;;3.90;;
54705;SDS011;40603;48.774;8.916;2023-11-21T13:05:54;5.30;;;4.47;;
54705;SDS011;40603;48.774;8.916;2023-11-21T13:08:22;5.97;;;4.45;;
54705;SDS011;40603;48.774;8.916;2023-11-21T13:10:49;5.10;;;3.83;;
54705;SDS011;40603;48.774;8.916;2023-11-21T13:13:16;5.43;;;4.30;;
54705;SDS011;40603;48.774;8.916;2023-11-21T13:15:49;4.40;;;3.83;;
54705;SDS011;40603;48.774;8.916;2023-11-21T13:18:19;5.13;;;3.30;;
54705;SDS011;40603;48.774;8.916;2023-11-21T13:20:46;4.50;;;3.55;;
54705;SDS011;40603;48.774;8.916;2023-11-21T13:23:11;4.40;;;3.58;;
54705;SDS011;40603;48.774;8.916;2023-11-21T13:25:37;2.53;;;2.33;;
54705;SDS011;40603;48.774;8.916;2023-11-21T13:28:05;2.63;;;2.13;;
54705;SDS011;40603;48.774;8.916;2023-11-21T13:30:31;1.42;;;1.30;;
54705;SDS011;40603;48.774;8.916;2023-11-21T13:33:00;1.27;;;1.17;;
54705;SDS011;40603;48.774;8.916;2023-11-21T13:35:26;2.20;;;1.60;;
54705;SDS011;40603;48.774;8.916;2023-11-21T13:37:57;2.50;;;1.77;;
54705;SDS011;40603;48.774;8.916;2023-11-21T13:40:31;3.03;;;1.77;;
54705;SDS011;40603;48.774;8.916;2023-11-21T13:42:59;2.05;;;1.70;;
54705;SDS011;40603;48.774;8.916;2023-11-21T13:45:25;2.50;;;1.70;;
54705;SDS011;40603;48.774;8.916;2023-11-21T13:47:51;2.42;;;1.88;;
54705;SDS011;40603;48.774;8.916;2023-11-21T13:50:18;2.53;;;2.10;;
54705;SDS011;40603;48.774;8.916;2023-11-21T13:52:47;3.03;;;1.83;;
54705;SDS011;40603;48.774;8.916;2023-11-21T13:55:13;1.50;;;1.40;;
54705;SDS011;40603;48.774;8.916;2023-11-21T13:57:41;1.88;;;1.38;;
54705;SDS011;40603;48.774;8.916;2023-11-21T14:00:14;1.90;;;1.40;;
54705;SDS011;40603;48.774;8.916;2023-11-21T14:03:00;2.05;;;1.42;;
54705;SDS011;40603;48.774;8.916;2023-11-21T14:05:26;1.30;;;1.20;;
54705;SDS011;40603;48.774;8.916;2023-11-21T14:07:55;1.08;;;0.93;;
54705;SDS011;40603;48.774;8.916;2023-11-21T14:10:21;1.30;;;1.00;;
54705;SDS011;40603;48.774;8.916;2023-11-21T14:12:49;1.52;;;1.25;;
54705;SDS011;40603;48.774;8.916;2023-11-21T14:15:15;1.35;;;1.23;;
54705;SDS011;40603;48.774;8.916;2023-11-21T14:17:43;1.40;;;1.10;;
54705;SDS011;40603;48.774;8.916;2023-11-21T14:20:09;1.83;;;1.17;;
54705;SDS011;40603;48.774;8.916;2023-11-21T14:22:40;1.35;;;1.25;;
54705;SDS011;40603;48.774;8.916;2023-11-21T14:25:05;2.65;;;1.20;;
54705;SDS011;40603;48.774;8.916;2023-11-21T14:27:31;1.88;;;1.40;;
54705;SDS011;40603;48.774;8.916;2023-11-21T14:29:58;4.55;;;1.25;;
54705;SDS011;40603;48.774;8.916;2023-11-21T14:32:23;1.23;;;1.10;;
54705;SDS011;40603;48.774;8.916;2023-11-21T14:34:50;1.40;;;1.20;;
54705;SDS011;40603;48.774;8.916;2023-11-21T14:37:16;1.73;;;1.40;;
54705;SDS011;40603;48.774;8.916;2023-11-21T14:39:41;2.55;;;2.20;;
54705;SDS011;40603;48.774;8.916;2023-11-21T14:42:10;3.80;;;1.50;;
54705;SDS011;40603;48.774;8.916;2023-11-21T14:44:35;1.20;;;1.05;;
54705;SDS011;40603;48.774;8.916;2023-11-21T14:47:05;1.23;;;1.13;;
54705;SDS011;40603;48.774;8.916;2023-11-21T14:49:37;1.38;;;1.15;;
54705;SDS011;40603;48.774;8.916;2023-11-21T14:52:17;1.23;;;1.13;;
54705;SDS011;40603;48.774;8.916;2023-11-21T14:54:57;1.08;;;1.00;;
54705;SDS011;40603;48.774;8.916;2023-11-21T14:57:45;1.20;;;1.10;;
54705;SDS011;40603;48.774;8.916;2023-11-21T15:00:15;1.10;;;1.00;;